sensor_id;sensor_type;location;lat;lon;timestamp;temperature;humidity
56184;DHT22;42086;53.170;6.980;2022-11-15T00:01:45;8.20;99.90
56184;DHT22;42086;53.170;6.980;2022-11-15T00:04:11;8.20;99.90
56184;DHT22;42086;53.170;6.980;2022-11-15T00:06:36;8.20;99.90
56184;DHT22;42086;53.170;6.980;2022-11-15T00:09:03;8.20;99.90
56184;DHT22;42086;53.170;6.980;2022-11-15T00:11:28;8.20;99.90
56184;DHT22;42086;53.170;6.980;2022-11-15T00:13:55;8.20;99.90
56184;DHT22;42086;53.170;6.980;2022-11-15T00:16:22;8.20;99.90
56184;DHT22;42086;53.170;6.980;2022-11-15T00:18:48;8.60;99.90
56184;DHT22;42086;53.170;6.980;2022-11-15T00:21:14;8.10;99.90
56184;DHT22;42086;53.170;6.980;2022-11-15T00:23:40;8.00;99.90
56184;DHT22;42086;53.170;6.980;2022-11-15T00:26:06;8.30;99.90
56184;DHT22;42086;53.170;6.980;2022-11-15T00:28:32;7.80;99.90
56184;DHT22;42086;53.170;6.980;2022-11-15T00:31:03;8.50;99.90
56184;DHT22;42086;53.170;6.980;2022-11-15T00:33:30;7.70;99.90
56184;DHT22;42086;53.170;6.980;2022-11-15T00:36:00;7.60;99.90
56184;DHT22;42086;53.170;6.980;2022-11-15T00:38:31;7.50;99.90
56184;DHT22;42086;53.170;6.980;2022-11-15T00:40:56;7.50;99.90
56184;DHT22;42086;53.170;6.980;2022-11-15T00:43:22;7.50;99.90
56184;DHT22;42086;53.170;6.980;2022-11-15T00:45:48;7.40;99.90
56184;DHT22;42086;53.170;6.980;2022-11-15T00:48:14;7.50;99.90
56184;DHT22;42086;53.170;6.980;2022-11-15T00:50:39;7.30;99.90
56184;DHT22;42086;53.170;6.980;2022-11-15T00:53:05;7.50;99.90
56184;DHT22;42086;53.170;6.980;2022-11-15T00:55:31;7.30;99.90
56184;DHT22;42086;53.170;6.980;2022-11-15T00:57:56;7.40;99.90
56184;DHT22;42086;53.170;6.980;2022-11-15T01:00:22;7.40;99.90
56184;DHT22;42086;53.170;6.980;2022-11-15T01:02:48;7.30;99.90
56184;DHT22;42086;53.170;6.980;2022-11-15T01:05:13;7.10;99.90
56184;DHT22;42086;53.170;6.980;2022-11-15T01:07:39;7.10;99.90
56184;DHT22;42086;53.170;6.980;2022-11-15T01:10:05;7.10;99.90
56184;DHT22;42086;53.170;6.980;2022-11-15T01:12:31;7.10;99.90
56184;DHT22;42086;53.170;6.980;2022-11-15T01:14:57;8.00;99.90
56184;DHT22;42086;53.170;6.980;2022-11-15T01:17:23;7.10;99.90
56184;DHT22;42086;53.170;6.980;2022-11-15T01:19:49;7.80;99.90
56184;DHT22;42086;53.170;6.980;2022-11-15T01:22:15;7.10;99.90
56184;DHT22;42086;53.170;6.980;2022-11-15T01:24:40;8.00;99.90
56184;DHT22;42086;53.170;6.980;2022-11-15T01:27:06;7.30;99.90
56184;DHT22;42086;53.170;6.980;2022-11-15T01:29:32;7.40;99.90
56184;DHT22;42086;53.170;6.980;2022-11-15T01:31:57;7.40;99.90
56184;DHT22;42086;53.170;6.980;2022-11-15T01:34:23;7.50;99.90
56184;DHT22;42086;53.170;6.980;2022-11-15T01:36:49;7.60;99.90
56184;DHT22;42086;53.170;6.980;2022-11-15T01:39:15;7.70;99.90
56184;DHT22;42086;53.170;6.980;2022-11-15T01:41:41;7.70;99.90
56184;DHT22;42086;53.170;6.980;2022-11-15T01:46:58;7.80;99.90
56184;DHT22;42086;53.170;6.980;2022-11-15T01:49:25;7.90;99.90
56184;DHT22;42086;53.170;6.980;2022-11-15T01:51:53;7.90;99.90
56184;DHT22;42086;53.170;6.980;2022-11-15T01:54:21;7.90;99.90
56184;DHT22;42086;53.170;6.980;2022-11-15T01:56:52;8.10;99.90
56184;DHT22;42086;53.170;6.980;2022-11-15T01:59:19;8.40;99.90
56184;DHT22;42086;53.170;6.980;2022-11-15T02:01:45;8.00;99.90
56184;DHT22;42086;53.170;6.980;2022-11-15T02:04:15;8.00;99.90
56184;DHT22;42086;53.170;6.980;2022-11-15T02:06:42;8.40;99.90
56184;DHT22;42086;53.170;6.980;2022-11-15T02:09:09;8.10;99.90
56184;DHT22;42086;53.170;6.980;2022-11-15T02:11:35;8.10;99.90
56184;DHT22;42086;53.170;6.980;2022-11-15T02:14:01;8.10;99.90
56184;DHT22;42086;53.170;6.980;2022-11-15T02:36:25;8.20;99.90
56184;DHT22;42086;53.170;6.980;2022-11-15T02:39:23;8.20;99.90
56184;DHT22;42086;53.170;6.980;2022-11-15T02:41:57;8.20;99.90
56184;DHT22;42086;53.170;6.980;2022-11-15T02:47:00;8.30;99.90
56184;DHT22;42086;53.170;6.980;2022-11-15T02:49:51;8.30;99.90
56184;DHT22;42086;53.170;6.980;2022-11-15T02:52:20;8.30;99.90
56184;DHT22;42086;53.170;6.980;2022-11-15T02:54:57;8.30;99.90
56184;DHT22;42086;53.170;6.980;2022-11-15T03:00:08;8.40;99.90
56184;DHT22;42086;53.170;6.980;2022-11-15T03:05:35;8.40;99.90
56184;DHT22;42086;53.170;6.980;2022-11-15T03:19:22;8.40;99.90
56184;DHT22;42086;53.170;6.980;2022-11-15T03:21:51;8.50;99.90
56184;DHT22;42086;53.170;6.980;2022-11-15T03:24:19;8.50;99.90
56184;DHT22;42086;53.170;6.980;2022-11-15T03:26:47;8.40;99.90
56184;DHT22;42086;53.170;6.980;2022-11-15T03:29:24;8.70;99.90
56184;DHT22;42086;53.170;6.980;2022-11-15T03:31:55;8.50;99.90
56184;DHT22;42086;53.170;6.980;2022-11-15T03:36:57;8.50;99.90
56184;DHT22;42086;53.170;6.980;2022-11-15T03:39:23;8.50;99.90
56184;DHT22;42086;53.170;6.980;2022-11-15T03:45:18;8.50;99.90
56184;DHT22;42086;53.170;6.980;2022-11-15T03:47:58;8.70;99.90
56184;DHT22;42086;53.170;6.980;2022-11-15T03:50:26;8.50;99.90
56184;DHT22;42086;53.170;6.980;2022-11-15T03:52:54;8.50;99.90
56184;DHT22;42086;53.170;6.980;2022-11-15T03:55:21;8.50;99.90
56184;DHT22;42086;53.170;6.980;2022-11-15T03:57:52;8.50;99.90
56184;DHT22;42086;53.170;6.980;2022-11-15T04:00:18;8.50;99.90
56184;DHT22;42086;53.170;6.980;2022-11-15T04:02:44;8.50;99.90
56184;DHT22;42086;53.170;6.980;2022-11-15T04:05:09;9.30;99.90
56184;DHT22;42086;53.170;6.980;2022-11-15T04:07:35;8.50;99.90
56184;DHT22;42086;53.170;6.980;2022-11-15T04:10:01;8.50;99.90
56184;DHT22;42086;53.170;6.980;2022-11-15T04:12:35;8.50;99.90
56184;DHT22;42086;53.170;6.980;2022-11-15T04:15:12;9.10;99.90
56184;DHT22;42086;53.170;6.980;2022-11-15T04:20:22;8.60;99.90
56184;DHT22;42086;53.170;6.980;2022-11-15T04:23:12;8.60;99.90
56184;DHT22;42086;53.170;6.980;2022-11-15T04:26:00;8.70;99.90
56184;DHT22;42086;53.170;6.980;2022-11-15T04:28:26;8.70;99.90
56184;DHT22;42086;53.170;6.980;2022-11-15T04:30:52;8.60;99.90
56184;DHT22;42086;53.170;6.980;2022-11-15T04:33:18;8.70;99.90
56184;DHT22;42086;53.170;6.980;2022-11-15T04:35:44;8.60;99.90
56184;DHT22;42086;53.170;6.980;2022-11-15T04:38:30;8.70;99.90
56184;DHT22;42086;53.170;6.980;2022-11-15T04:40:55;8.70;99.90
56184;DHT22;42086;53.170;6.980;2022-11-15T04:43:21;8.90;99.90
56184;DHT22;42086;53.170;6.980;2022-11-15T04:45:47;8.70;99.90
56184;DHT22;42086;53.170;6.980;2022-11-15T04:48:12;8.70;99.90
56184;DHT22;42086;53.170;6.980;2022-11-15T04:50:38;8.70;99.90
56184;DHT22;42086;53.170;6.980;2022-11-15T04:53:03;8.70;99.90
56184;DHT22;42086;53.170;6.980;2022-11-15T04:55:29;8.70;99.90
56184;DHT22;42086;53.170;6.980;2022-11-15T04:58:00;8.70;99.90
56184;DHT22;42086;53.170;6.980;2022-11-15T05:00:26;8.70;99.90
56184;DHT22;42086;53.170;6.980;2022-11-15T05:02:53;8.70;99.90
56184;DHT22;42086;53.170;6.980;2022-11-15T05:05:37;8.80;99.90
56184;DHT22;42086;53.170;6.980;2022-11-15T05:08:03;8.80;99.90
56184;DHT22;42086;53.170;6.980;2022-11-15T05:10:29;8.90;99.90
56184;DHT22;42086;53.170;6.980;2022-11-15T05:12:55;8.80;99.90
56184;DHT22;42086;53.170;6.980;2022-11-15T05:15:21;8.90;99.90
56184;DHT22;42086;53.170;6.980;2022-11-15T05:17:46;8.90;99.90
56184;DHT22;42086;53.170;6.980;2022-11-15T05:20:12;8.90;99.90
56184;DHT22;42086;53.170;6.980;2022-11-15T05:22:38;9.00;99.90
56184;DHT22;42086;53.170;6.980;2022-11-15T05:25:05;8.90;99.90
56184;DHT22;42086;53.170;6.980;2022-11-15T05:27:31;9.00;99.90
56184;DHT22;42086;53.170;6.980;2022-11-15T05:29:57;9.10;99.90
56184;DHT22;42086;53.170;6.980;2022-11-15T05:32:23;9.30;99.90
56184;DHT22;42086;53.170;6.980;2022-11-15T05:34:49;9.10;99.90
56184;DHT22;42086;53.170;6.980;2022-11-15T05:37:16;9.10;99.90
56184;DHT22;42086;53.170;6.980;2022-11-15T05:39:42;9.20;99.90
56184;DHT22;42086;53.170;6.980;2022-11-15T05:42:15;9.20;99.90
56184;DHT22;42086;53.170;6.980;2022-11-15T05:44:44;9.30;99.90
56184;DHT22;42086;53.170;6.980;2022-11-15T05:47:16;9.30;99.90
56184;DHT22;42086;53.170;6.980;2022-11-15T05:49:43;9.60;99.90
56184;DHT22;42086;53.170;6.980;2022-11-15T05:52:12;9.40;99.90
56184;DHT22;42086;53.170;6.980;2022-11-15T05:54:38;9.40;99.90
56184;DHT22;42086;53.170;6.980;2022-11-15T05:57:05;9.50;99.90
56184;DHT22;42086;53.170;6.980;2022-11-15T05:59:32;9.50;99.90
56184;DHT22;42086;53.170;6.980;2022-11-15T06:01:58;9.60;99.90
56184;DHT22;42086;53.170;6.980;2022-11-15T06:04:24;9.60;99.90
56184;DHT22;42086;53.170;6.980;2022-11-15T06:06:49;9.70;99.90
56184;DHT22;42086;53.170;6.980;2022-11-15T06:09:15;9.70;99.90
56184;DHT22;42086;53.170;6.980;2022-11-15T06:11:41;9.70;99.90
56184;DHT22;42086;53.170;6.980;2022-11-15T06:14:06;9.80;99.90
56184;DHT22;42086;53.170;6.980;2022-11-15T06:16:32;9.80;99.90
56184;DHT22;42086;53.170;6.980;2022-11-15T06:18:58;9.80;99.90
56184;DHT22;42086;53.170;6.980;2022-11-15T06:21:24;9.90;99.90
56184;DHT22;42086;53.170;6.980;2022-11-15T06:23:49;9.90;99.90
56184;DHT22;42086;53.170;6.980;2022-11-15T06:26:15;10.00;99.90
56184;DHT22;42086;53.170;6.980;2022-11-15T06:28:41;10.00;99.90
56184;DHT22;42086;53.170;6.980;2022-11-15T06:31:09;10.00;99.90
56184;DHT22;42086;53.170;6.980;2022-11-15T06:33:37;10.00;99.90
56184;DHT22;42086;53.170;6.980;2022-11-15T06:36:04;10.10;99.90
56184;DHT22;42086;53.170;6.980;2022-11-15T06:38:30;10.20;99.90
56184;DHT22;42086;53.170;6.980;2022-11-15T06:41:05;10.20;99.90
56184;DHT22;42086;53.170;6.980;2022-11-15T06:43:31;10.20;99.90
56184;DHT22;42086;53.170;6.980;2022-11-15T06:46:01;10.30;99.90
56184;DHT22;42086;53.170;6.980;2022-11-15T06:48:28;10.30;99.90
56184;DHT22;42086;53.170;6.980;2022-11-15T06:50:56;10.40;99.90
56184;DHT22;42086;53.170;6.980;2022-11-15T06:53:23;10.40;99.90
56184;DHT22;42086;53.170;6.980;2022-11-15T06:55:49;10.40;99.90
56184;DHT22;42086;53.170;6.980;2022-11-15T06:58:15;10.40;99.90
56184;DHT22;42086;53.170;6.980;2022-11-15T07:00:41;10.40;99.90
56184;DHT22;42086;53.170;6.980;2022-11-15T07:03:07;10.50;99.90
56184;DHT22;42086;53.170;6.980;2022-11-15T07:05:33;10.50;99.90
56184;DHT22;42086;53.170;6.980;2022-11-15T07:07:59;10.50;99.90
56184;DHT22;42086;53.170;6.980;2022-11-15T07:10:25;10.50;99.90
56184;DHT22;42086;53.170;6.980;2022-11-15T07:12:52;10.60;99.90
56184;DHT22;42086;53.170;6.980;2022-11-15T07:15:20;10.60;99.90
56184;DHT22;42086;53.170;6.980;2022-11-15T07:17:46;10.60;99.90
56184;DHT22;42086;53.170;6.980;2022-11-15T07:20:13;10.60;99.90
56184;DHT22;42086;53.170;6.980;2022-11-15T07:22:39;10.70;99.90
56184;DHT22;42086;53.170;6.980;2022-11-15T07:25:06;10.70;99.90
56184;DHT22;42086;53.170;6.980;2022-11-15T07:27:31;10.70;99.90
56184;DHT22;42086;53.170;6.980;2022-11-15T07:29:57;10.70;99.90
56184;DHT22;42086;53.170;6.980;2022-11-15T07:32:23;10.80;99.90
56184;DHT22;42086;53.170;6.980;2022-11-15T07:34:48;10.80;99.90
56184;DHT22;42086;53.170;6.980;2022-11-15T07:37:14;10.80;99.90
56184;DHT22;42086;53.170;6.980;2022-11-15T07:39:40;10.80;99.90
56184;DHT22;42086;53.170;6.980;2022-11-15T07:42:06;10.80;99.90
56184;DHT22;42086;53.170;6.980;2022-11-15T07:44:50;10.90;99.90
56184;DHT22;42086;53.170;6.980;2022-11-15T07:47:15;10.90;99.90
56184;DHT22;42086;53.170;6.980;2022-11-15T07:49:41;10.90;99.90
56184;DHT22;42086;53.170;6.980;2022-11-15T07:52:07;11.00;99.90
56184;DHT22;42086;53.170;6.980;2022-11-15T07:54:32;11.00;99.90
56184;DHT22;42086;53.170;6.980;2022-11-15T07:56:58;11.00;99.90
56184;DHT22;42086;53.170;6.980;2022-11-15T07:59:24;11.10;99.90
56184;DHT22;42086;53.170;6.980;2022-11-15T08:01:50;11.10;99.90
56184;DHT22;42086;53.170;6.980;2022-11-15T08:04:15;11.20;99.90
56184;DHT22;42086;53.170;6.980;2022-11-15T08:06:42;11.20;99.90
56184;DHT22;42086;53.170;6.980;2022-11-15T08:09:08;11.20;99.90
56184;DHT22;42086;53.170;6.980;2022-11-15T08:11:33;11.30;99.90
56184;DHT22;42086;53.170;6.980;2022-11-15T08:13:59;11.30;99.90
56184;DHT22;42086;53.170;6.980;2022-11-15T08:16:25;11.40;99.90
56184;DHT22;42086;53.170;6.980;2022-11-15T08:18:50;11.40;99.90
56184;DHT22;42086;53.170;6.980;2022-11-15T08:21:19;11.50;99.90
56184;DHT22;42086;53.170;6.980;2022-11-15T08:23:45;11.50;99.90
56184;DHT22;42086;53.170;6.980;2022-11-15T08:26:10;11.60;99.90
56184;DHT22;42086;53.170;6.980;2022-11-15T08:28:36;11.60;99.90
56184;DHT22;42086;53.170;6.980;2022-11-15T08:31:03;11.60;99.90
56184;DHT22;42086;53.170;6.980;2022-11-15T08:33:30;11.60;99.90
56184;DHT22;42086;53.170;6.980;2022-11-15T08:36:00;11.70;99.90
56184;DHT22;42086;53.170;6.980;2022-11-15T08:38:26;11.80;99.90
56184;DHT22;42086;53.170;6.980;2022-11-15T08:41:00;11.80;99.90
56184;DHT22;42086;53.170;6.980;2022-11-15T08:43:26;11.90;99.90
56184;DHT22;42086;53.170;6.980;2022-11-15T08:45:56;12.00;99.90
56184;DHT22;42086;53.170;6.980;2022-11-15T08:48:22;11.90;99.90
56184;DHT22;42086;53.170;6.980;2022-11-15T08:50:48;11.90;99.90
56184;DHT22;42086;53.170;6.980;2022-11-15T08:53:13;12.00;99.90
56184;DHT22;42086;53.170;6.980;2022-11-15T08:55:40;12.00;99.90
56184;DHT22;42086;53.170;6.980;2022-11-15T08:58:06;12.10;99.90
56184;DHT22;42086;53.170;6.980;2022-11-15T09:00:33;12.20;99.90
56184;DHT22;42086;53.170;6.980;2022-11-15T09:02:58;12.30;99.90
56184;DHT22;42086;53.170;6.980;2022-11-15T09:05:25;12.30;99.90
56184;DHT22;42086;53.170;6.980;2022-11-15T09:07:54;12.40;99.90
56184;DHT22;42086;53.170;6.980;2022-11-15T09:10:21;12.40;99.90
56184;DHT22;42086;53.170;6.980;2022-11-15T09:12:46;12.50;99.90
56184;DHT22;42086;53.170;6.980;2022-11-15T09:15:14;12.50;99.90
56184;DHT22;42086;53.170;6.980;2022-11-15T09:17:41;12.50;99.90
56184;DHT22;42086;53.170;6.980;2022-11-15T09:20:08;12.50;99.90
56184;DHT22;42086;53.170;6.980;2022-11-15T09:22:34;12.50;99.90
56184;DHT22;42086;53.170;6.980;2022-11-15T09:25:00;12.40;99.90
56184;DHT22;42086;53.170;6.980;2022-11-15T09:27:30;12.50;99.90
56184;DHT22;42086;53.170;6.980;2022-11-15T09:29:56;12.50;99.90
56184;DHT22;42086;53.170;6.980;2022-11-15T09:32:22;12.50;99.90
56184;DHT22;42086;53.170;6.980;2022-11-15T09:34:50;12.50;99.90
56184;DHT22;42086;53.170;6.980;2022-11-15T09:37:16;12.60;99.90
56184;DHT22;42086;53.170;6.980;2022-11-15T09:39:42;12.60;99.90
56184;DHT22;42086;53.170;6.980;2022-11-15T09:42:24;12.60;99.90
56184;DHT22;42086;53.170;6.980;2022-11-15T09:50:51;12.80;99.90
56184;DHT22;42086;53.170;6.980;2022-11-15T09:53:42;12.80;99.90
56184;DHT22;42086;53.170;6.980;2022-11-15T09:56:20;12.80;99.90
56184;DHT22;42086;53.170;6.980;2022-11-15T10:04:21;12.80;99.90
56184;DHT22;42086;53.170;6.980;2022-11-15T10:06:58;12.80;99.90
56184;DHT22;42086;53.170;6.980;2022-11-15T10:09:36;12.70;99.90
56184;DHT22;42086;53.170;6.980;2022-11-15T10:12:04;12.70;99.90
56184;DHT22;42086;53.170;6.980;2022-11-15T10:14:31;12.70;99.90
56184;DHT22;42086;53.170;6.980;2022-11-15T10:24:45;12.60;99.90
56184;DHT22;42086;53.170;6.980;2022-11-15T10:27:17;12.60;99.90
56184;DHT22;42086;53.170;6.980;2022-11-15T10:29:49;12.60;99.90
56184;DHT22;42086;53.170;6.980;2022-11-15T10:32:18;12.60;99.90
56184;DHT22;42086;53.170;6.980;2022-11-15T10:34:45;12.60;99.90
56184;DHT22;42086;53.170;6.980;2022-11-15T10:37:11;12.60;99.90
56184;DHT22;42086;53.170;6.980;2022-11-15T10:39:37;12.60;99.90
56184;DHT22;42086;53.170;6.980;2022-11-15T10:42:27;12.60;99.90
56184;DHT22;42086;53.170;6.980;2022-11-15T10:44:53;12.60;99.90
56184;DHT22;42086;53.170;6.980;2022-11-15T10:47:29;12.60;99.90
56184;DHT22;42086;53.170;6.980;2022-11-15T10:50:29;12.70;99.90
56184;DHT22;42086;53.170;6.980;2022-11-15T10:52:55;12.70;99.90
56184;DHT22;42086;53.170;6.980;2022-11-15T10:55:27;12.70;99.90
56184;DHT22;42086;53.170;6.980;2022-11-15T10:58:19;12.60;99.90
56184;DHT22;42086;53.170;6.980;2022-11-15T11:00:45;12.60;99.90
56184;DHT22;42086;53.170;6.980;2022-11-15T11:06:06;12.60;99.90
56184;DHT22;42086;53.170;6.980;2022-11-15T11:08:32;12.60;99.90
56184;DHT22;42086;53.170;6.980;2022-11-15T11:11:00;12.60;99.90
56184;DHT22;42086;53.170;6.980;2022-11-15T11:13:29;12.60;99.90
56184;DHT22;42086;53.170;6.980;2022-11-15T11:21:54;12.70;99.90
56184;DHT22;42086;53.170;6.980;2022-11-15T11:33:26;12.90;99.90
56184;DHT22;42086;53.170;6.980;2022-11-15T11:41:43;12.90;99.90
56184;DHT22;42086;53.170;6.980;2022-11-15T11:44:38;13.00;99.90
56184;DHT22;42086;53.170;6.980;2022-11-15T11:47:23;13.00;99.90
56184;DHT22;42086;53.170;6.980;2022-11-15T11:50:10;13.10;99.90
56184;DHT22;42086;53.170;6.980;2022-11-15T11:58:35;13.20;99.90
56184;DHT22;42086;53.170;6.980;2022-11-15T12:01:21;13.20;99.90
56184;DHT22;42086;53.170;6.980;2022-11-15T12:04:18;13.20;99.90
56184;DHT22;42086;53.170;6.980;2022-11-15T12:07:15;13.30;99.90
56184;DHT22;42086;53.170;6.980;2022-11-15T12:12:38;13.50;99.90
56184;DHT22;42086;53.170;6.980;2022-11-15T12:15:17;13.50;99.90
56184;DHT22;42086;53.170;6.980;2022-11-15T12:17:44;13.40;99.90
56184;DHT22;42086;53.170;6.980;2022-11-15T12:20:26;13.30;99.90
56184;DHT22;42086;53.170;6.980;2022-11-15T12:22:57;13.30;99.90
56184;DHT22;42086;53.170;6.980;2022-11-15T12:25:27;13.20;99.90
56184;DHT22;42086;53.170;6.980;2022-11-15T12:31:12;13.20;99.90
56184;DHT22;42086;53.170;6.980;2022-11-15T12:33:43;13.20;99.90
56184;DHT22;42086;53.170;6.980;2022-11-15T12:41:28;13.40;99.90
56184;DHT22;42086;53.170;6.980;2022-11-15T12:43:54;13.00;99.90
56184;DHT22;42086;53.170;6.980;2022-11-15T12:49:42;14.30;99.90
56184;DHT22;42086;53.170;6.980;2022-11-15T12:52:08;14.20;99.90
56184;DHT22;42086;53.170;6.980;2022-11-15T13:00:01;13.90;99.90
56184;DHT22;42086;53.170;6.980;2022-11-15T13:02:42;14.00;99.90
56184;DHT22;42086;53.170;6.980;2022-11-15T13:17:46;14.70;99.90
56184;DHT22;42086;53.170;6.980;2022-11-15T13:22:49;14.30;99.90
56184;DHT22;42086;53.170;6.980;2022-11-15T13:25:48;14.20;99.90
56184;DHT22;42086;53.170;6.980;2022-11-15T13:33:19;15.80;99.90
56184;DHT22;42086;53.170;6.980;2022-11-15T13:35:48;16.60;99.90
56184;DHT22;42086;53.170;6.980;2022-11-15T13:38:28;17.00;99.90
56184;DHT22;42086;53.170;6.980;2022-11-15T13:40:56;17.00;99.90
56184;DHT22;42086;53.170;6.980;2022-11-15T13:48:58;16.60;99.90
56184;DHT22;42086;53.170;6.980;2022-11-15T13:51:43;16.30;99.90
56184;DHT22;42086;53.170;6.980;2022-11-15T13:54:25;16.10;99.90
56184;DHT22;42086;53.170;6.980;2022-11-15T13:57:24;16.00;99.90
56184;DHT22;42086;53.170;6.980;2022-11-15T14:00:02;15.90;99.90
56184;DHT22;42086;53.170;6.980;2022-11-15T14:02:36;15.90;99.90
56184;DHT22;42086;53.170;6.980;2022-11-15T14:05:19;15.80;99.90
56184;DHT22;42086;53.170;6.980;2022-11-15T14:07:57;15.90;99.90
56184;DHT22;42086;53.170;6.980;2022-11-15T14:10:33;15.80;99.90
56184;DHT22;42086;53.170;6.980;2022-11-15T14:12:59;15.70;99.90
56184;DHT22;42086;53.170;6.980;2022-11-15T14:15:34;15.50;99.90
56184;DHT22;42086;53.170;6.980;2022-11-15T14:18:00;15.70;99.90
56184;DHT22;42086;53.170;6.980;2022-11-15T14:20:34;15.50;99.90
56184;DHT22;42086;53.170;6.980;2022-11-15T14:23:05;15.60;99.90
56184;DHT22;42086;53.170;6.980;2022-11-15T14:25:55;15.70;99.90
56184;DHT22;42086;53.170;6.980;2022-11-15T14:30:55;15.40;99.90
56184;DHT22;42086;53.170;6.980;2022-11-15T14:33:33;15.10;99.90
56184;DHT22;42086;53.170;6.980;2022-11-15T14:36:26;15.00;99.90
56184;DHT22;42086;53.170;6.980;2022-11-15T14:38:52;14.80;99.90
56184;DHT22;42086;53.170;6.980;2022-11-15T14:41:21;14.60;99.90
56184;DHT22;42086;53.170;6.980;2022-11-15T14:43:48;14.40;99.90
56184;DHT22;42086;53.170;6.980;2022-11-15T14:46:14;14.20;99.90
56184;DHT22;42086;53.170;6.980;2022-11-15T14:48:39;14.10;99.90
56184;DHT22;42086;53.170;6.980;2022-11-15T14:51:13;13.80;99.90
56184;DHT22;42086;53.170;6.980;2022-11-15T14:53:40;13.60;99.90
56184;DHT22;42086;53.170;6.980;2022-11-15T14:56:06;13.60;99.90
56184;DHT22;42086;53.170;6.980;2022-11-15T14:58:32;13.60;99.90
56184;DHT22;42086;53.170;6.980;2022-11-15T15:00:58;13.50;99.90
56184;DHT22;42086;53.170;6.980;2022-11-15T15:03:23;13.40;99.90
56184;DHT22;42086;53.170;6.980;2022-11-15T15:05:49;13.20;99.90
56184;DHT22;42086;53.170;6.980;2022-11-15T15:08:15;13.00;99.90
56184;DHT22;42086;53.170;6.980;2022-11-15T15:10:43;12.80;99.90
56184;DHT22;42086;53.170;6.980;2022-11-15T15:13:21;12.70;99.90
56184;DHT22;42086;53.170;6.980;2022-11-15T15:15:48;12.60;99.90
56184;DHT22;42086;53.170;6.980;2022-11-15T15:18:13;12.50;99.90
56184;DHT22;42086;53.170;6.980;2022-11-15T15:20:41;12.30;99.90
56184;DHT22;42086;53.170;6.980;2022-11-15T15:23:17;12.20;99.90
56184;DHT22;42086;53.170;6.980;2022-11-15T15:25:44;12.00;99.90
56184;DHT22;42086;53.170;6.980;2022-11-15T15:28:11;11.90;99.90
56184;DHT22;42086;53.170;6.980;2022-11-15T15:30:37;11.70;99.90
56184;DHT22;42086;53.170;6.980;2022-11-15T15:33:02;11.60;99.90
56184;DHT22;42086;53.170;6.980;2022-11-15T15:35:30;11.50;99.90
56184;DHT22;42086;53.170;6.980;2022-11-15T15:37:57;11.50;99.90
56184;DHT22;42086;53.170;6.980;2022-11-15T15:40:24;11.40;99.90
56184;DHT22;42086;53.170;6.980;2022-11-15T15:42:50;11.30;99.90
56184;DHT22;42086;53.170;6.980;2022-11-15T15:45:16;11.20;99.90
56184;DHT22;42086;53.170;6.980;2022-11-15T15:47:43;11.20;99.90
56184;DHT22;42086;53.170;6.980;2022-11-15T15:50:28;11.10;99.90
56184;DHT22;42086;53.170;6.980;2022-11-15T15:52:56;11.00;99.90
56184;DHT22;42086;53.170;6.980;2022-11-15T15:55:22;11.00;99.90
56184;DHT22;42086;53.170;6.980;2022-11-15T15:57:48;10.90;99.90
56184;DHT22;42086;53.170;6.980;2022-11-15T16:00:16;10.90;99.90
56184;DHT22;42086;53.170;6.980;2022-11-15T16:02:42;10.90;99.90
56184;DHT22;42086;53.170;6.980;2022-11-15T16:05:09;10.90;99.90
56184;DHT22;42086;53.170;6.980;2022-11-15T16:07:35;10.90;99.90
56184;DHT22;42086;53.170;6.980;2022-11-15T16:10:04;11.00;99.90
56184;DHT22;42086;53.170;6.980;2022-11-15T16:12:38;11.00;99.90
56184;DHT22;42086;53.170;6.980;2022-11-15T16:15:04;11.00;99.90
56184;DHT22;42086;53.170;6.980;2022-11-15T16:17:35;11.00;99.90
56184;DHT22;42086;53.170;6.980;2022-11-15T16:20:02;11.10;99.90
56184;DHT22;42086;53.170;6.980;2022-11-15T16:22:28;11.10;99.90
56184;DHT22;42086;53.170;6.980;2022-11-15T16:24:55;11.10;99.90
56184;DHT22;42086;53.170;6.980;2022-11-15T16:27:21;11.10;99.90
56184;DHT22;42086;53.170;6.980;2022-11-15T16:29:48;11.00;99.90
56184;DHT22;42086;53.170;6.980;2022-11-15T16:32:15;11.00;99.90
56184;DHT22;42086;53.170;6.980;2022-11-15T16:34:41;11.00;99.90
56184;DHT22;42086;53.170;6.980;2022-11-15T16:37:23;10.90;99.90
56184;DHT22;42086;53.170;6.980;2022-11-15T16:39:48;10.90;99.90
56184;DHT22;42086;53.170;6.980;2022-11-15T16:42:14;10.80;99.90
56184;DHT22;42086;53.170;6.980;2022-11-15T16:44:40;10.80;99.90
56184;DHT22;42086;53.170;6.980;2022-11-15T16:47:16;10.70;99.90
56184;DHT22;42086;53.170;6.980;2022-11-15T16:49:43;10.70;99.90
56184;DHT22;42086;53.170;6.980;2022-11-15T16:52:09;10.60;99.90
56184;DHT22;42086;53.170;6.980;2022-11-15T16:54:35;10.60;99.90
56184;DHT22;42086;53.170;6.980;2022-11-15T16:57:01;10.60;99.90
56184;DHT22;42086;53.170;6.980;2022-11-15T16:59:26;10.60;99.90
56184;DHT22;42086;53.170;6.980;2022-11-15T17:01:52;10.60;99.90
56184;DHT22;42086;53.170;6.980;2022-11-15T17:04:18;10.60;99.90
56184;DHT22;42086;53.170;6.980;2022-11-15T17:06:47;10.70;99.90
56184;DHT22;42086;53.170;6.980;2022-11-15T17:09:19;10.70;99.90
56184;DHT22;42086;53.170;6.980;2022-11-15T17:11:45;10.70;99.90
56184;DHT22;42086;53.170;6.980;2022-11-15T17:14:12;10.80;99.90
56184;DHT22;42086;53.170;6.980;2022-11-15T17:16:38;10.80;99.90
56184;DHT22;42086;53.170;6.980;2022-11-15T17:19:14;10.80;99.90
56184;DHT22;42086;53.170;6.980;2022-11-15T17:21:41;10.80;99.90
56184;DHT22;42086;53.170;6.980;2022-11-15T17:24:08;10.70;99.90
56184;DHT22;42086;53.170;6.980;2022-11-15T17:26:34;10.70;99.90
56184;DHT22;42086;53.170;6.980;2022-11-15T17:29:00;10.60;99.90
56184;DHT22;42086;53.170;6.980;2022-11-15T17:31:26;10.60;99.90
56184;DHT22;42086;53.170;6.980;2022-11-15T17:33:52;10.70;99.90
56184;DHT22;42086;53.170;6.980;2022-11-15T17:36:18;10.70;99.90
56184;DHT22;42086;53.170;6.980;2022-11-15T17:38:44;10.70;99.90
56184;DHT22;42086;53.170;6.980;2022-11-15T17:41:15;10.80;99.90
56184;DHT22;42086;53.170;6.980;2022-11-15T17:43:41;10.80;99.90
56184;DHT22;42086;53.170;6.980;2022-11-15T17:46:12;10.90;99.90
56184;DHT22;42086;53.170;6.980;2022-11-15T17:48:38;10.90;99.90
56184;DHT22;42086;53.170;6.980;2022-11-15T17:51:06;10.90;99.90
56184;DHT22;42086;53.170;6.980;2022-11-15T17:53:37;10.90;99.90
56184;DHT22;42086;53.170;6.980;2022-11-15T17:56:07;10.90;99.90
56184;DHT22;42086;53.170;6.980;2022-11-15T17:58:33;10.90;99.90
56184;DHT22;42086;53.170;6.980;2022-11-15T18:01:07;10.90;99.90
56184;DHT22;42086;53.170;6.980;2022-11-15T18:03:35;10.90;99.90
56184;DHT22;42086;53.170;6.980;2022-11-15T18:06:01;10.90;99.90
56184;DHT22;42086;53.170;6.980;2022-11-15T18:08:26;10.90;99.90
56184;DHT22;42086;53.170;6.980;2022-11-15T18:11:05;10.80;99.90
56184;DHT22;42086;53.170;6.980;2022-11-15T18:13:33;10.80;99.90
56184;DHT22;42086;53.170;6.980;2022-11-15T18:15:59;10.80;99.90